This demonstration page uses our WeatherBlox Daily Observations layout. Learn more.

Hourly Observations for January 7, 2020

Temp ( °F °C ) Dew Point ( °F °C ) Humidity (%) Winds ( mph kmh ) Pressure ( in mb ) Visibility ( mi km ) Precip ( " mm )
12:54 am 00:54 Clear 36 2.2 23 -5 59 59 NW 16 26 30.16 1022 10 16.0934 0 0
1:54 am 01:54 Clear 33 0.6 23 -5 66 66 WNW 9 15 30.18 1022 10 16.0934 0 0
2:54 am 02:54 Clear 30 -1.1 23 -5 75 75 WNW 8 13 30.2 1023 10 16.0934 0 0
3:54 am 03:54 Clear 30 -1.1 22 -5.6 72 72 NW 8 13 30.2 1023 10 16.0934 0 0
4:54 am 04:54 Clear 28 -2.2 21 -6.1 75 75 W 3 6 30.21 1023 10 16.0934 0 0
5:54 am 05:54 Clear 27 -2.8 21 -6.1 78 78 W 3 6 30.22 1023 10 16.0934 0 0
6:54 am 06:54 Clear 27 -2.8 21 -6.1 78 78 WSW 7 11 30.21 1023 10 16.0934 0 0
7:54 am 07:54 Sunny 26 -3.3 20 -6.7 78 78 S 3 6 30.21 1023 10 16.0934 0 0
8:54 am 08:54 Sunny 27 -2.8 22 -5.6 81 81 S 7 11 30.22 1023 10 16.0934 0 0
9:54 am 09:54 Sunny 32 0 24 -4.4 73 73 SSW 5 7 30.21 1023 10 16.0934 0 0
10:54 am 10:54 Sunny 40 4.4 25 -3.9 55 55 SSW 13 20 30.19 1022 10 16.0934 0 0
11:54 am 11:54 Sunny 45 7.2 23 -5 42 42 WSW 17 28 30.16 1021 10 16.0934 0 0
12:54 pm 12:54 Sunny 46 7.8 24 -4.4 42 42 WSW 15 24 30.13 1020 10 16.0934 0 0
1:54 pm 13:54 Sunny 49 9.4 25 -3.9 39 39 WNW 15 24 30.14 1021 10 16.0934 0 0
2:54 pm 14:54 Sunny 50 10 22 -5.6 33 33 WNW 13 20 30.15 1021 10 16.0934 0 0
3:54 pm 15:54 Sunny 50 10 23 -5 35 35 NW 8 13 30.18 1022 10 16.0934 0 0
4:54 pm 16:54 Sunny 47 8.3 24 -4.4 41 41 NW 9 15 30.2 1023 10 16.0934 0 0
5:54 pm 17:54 Clear 34 1.1 23 -5 64 64 NNW 5 7 30.21 1023 10 16.0934 0 0
6:54 pm 18:54 Clear 31 -0.6 23 -5 72 72 NNW 5 7 30.24 1024 10 16.0934 0 0
7:54 pm 19:54 Clear 27 -2.8 21 -6.1 78 78 N 6 9 30.26 1025 10 16.0934 0 0
8:54 pm 20:54 Clear 29 -1.7 23 -5 78 78 N 6 9 30.28 1026 10 16.0934 0 0
9:54 pm 21:54 Clear 29 -1.7 24 -4.4 82 82 NE 3 6 30.3 1026 10 16.0934 0 0
10:54 pm 22:54 Clear 29 -1.7 24 -4.4 82 82 NNE 10 17 30.3 1026 10 16.0934 0 0
11:54 pm 23:54 Clear 28 -2.2 23 -5 81 81 N 9 15 30.3 1026 10 16.0934 0 0

Powered by AerisWeather